createdAt,value
2022-11-29T00:00:03.084Z,0.11800000000000001
2022-11-29T00:05:01.543Z,0.078
2022-11-29T00:10:01.512Z,0
2022-11-29T00:15:01.503Z,0
2022-11-29T00:20:01.505Z,0
2022-11-29T00:25:01.549Z,0
2022-11-29T00:30:01.640Z,0
2022-11-29T00:35:05.278Z,0
2022-11-29T00:40:01.575Z,0
2022-11-29T00:45:01.548Z,0.095
2022-11-29T00:50:01.587Z,0.11900000000000001
2022-11-29T00:55:01.490Z,0.11900000000000001
2022-11-29T01:00:01.607Z,0.11800000000000001
2022-11-29T01:05:01.539Z,0.135
2022-11-29T01:10:01.619Z,0.166
2022-11-29T01:15:01.654Z,0.158
2022-11-29T01:20:01.776Z,0.136
2022-11-29T01:25:01.618Z,0.108
2022-11-29T01:30:01.505Z,0.106
2022-11-29T01:35:01.531Z,0.027
2022-11-29T01:40:01.643Z,0
2022-11-29T01:45:01.615Z,0
2022-11-29T01:50:01.571Z,0
2022-11-29T01:55:01.567Z,0.065
2022-11-29T02:00:01.596Z,0.17
2022-11-29T02:05:01.645Z,0.165
2022-11-29T02:10:01.755Z,0.11800000000000001
2022-11-29T02:15:01.690Z,0.117
2022-11-29T02:20:01.590Z,0.117
2022-11-29T02:25:01.565Z,0.117
2022-11-29T02:30:01.625Z,0.116
2022-11-29T02:35:01.612Z,0.111
2022-11-29T02:40:01.677Z,0.069
2022-11-29T02:45:01.654Z,0
2022-11-29T02:50:01.779Z,0
2022-11-29T02:55:01.650Z,0.065
2022-11-29T03:00:01.771Z,0.04
2022-11-29T03:05:01.771Z,0
2022-11-29T03:10:01.655Z,0
2022-11-29T03:15:01.680Z,0.069
2022-11-29T03:20:01.688Z,0.11
2022-11-29T03:25:01.633Z,0.158
2022-11-29T03:30:01.695Z,0.168
2022-11-29T03:35:01.695Z,0.161
2022-11-29T03:40:01.684Z,0.115
2022-11-29T03:45:01.677Z,0.121
2022-11-29T03:50:02.163Z,0.11
2022-11-29T03:55:01.901Z,0.092
2022-11-29T04:00:01.788Z,0
2022-11-29T04:05:01.703Z,0
2022-11-29T04:10:01.743Z,0
2022-11-29T04:15:01.726Z,0
2022-11-29T04:20:01.675Z,0.095
2022-11-29T04:25:01.774Z,0.122
2022-11-29T04:30:01.804Z,0.101
2022-11-29T04:35:01.768Z,0.11
2022-11-29T04:40:01.843Z,0.11
2022-11-29T04:45:01.907Z,0.114
2022-11-29T04:50:01.707Z,0.112
2022-11-29T04:55:01.713Z,0.128
2022-11-29T05:00:01.736Z,0.031
2022-11-29T05:05:01.729Z,0
2022-11-29T05:10:01.796Z,0
2022-11-29T05:15:01.758Z,0
2022-11-29T05:20:01.795Z,0
2022-11-29T05:25:01.834Z,0
2022-11-29T05:30:01.910Z,0.065
2022-11-29T05:35:01.947Z,0.098
2022-11-29T05:40:01.814Z,0.099
2022-11-29T05:45:01.792Z,0.14400000000000002
2022-11-29T05:50:01.787Z,0.139
2022-11-29T05:55:01.832Z,0.097
2022-11-29T06:00:01.853Z,0.057
2022-11-29T06:05:01.769Z,0.108
2022-11-29T06:10:02.198Z,0.265
2022-11-29T06:15:01.911Z,0.14
2022-11-29T06:20:01.963Z,0.075
2022-11-29T06:25:01.943Z,0.068
2022-11-29T06:30:02.139Z,0
2022-11-29T06:35:01.795Z,0.02
2022-11-29T06:40:01.810Z,0.014
2022-11-29T06:45:01.790Z,0.023
2022-11-29T06:50:02.161Z,0.039
2022-11-29T06:55:01.839Z,0.066
2022-11-29T07:00:01.856Z,0.08700000000000001
2022-11-29T07:05:01.903Z,0.097
2022-11-29T07:10:02.136Z,0.098
2022-11-29T07:15:01.912Z,0.221
2022-11-29T07:20:01.875Z,0.278
2022-11-29T07:25:01.859Z,0.139
2022-11-29T07:30:01.883Z,0.073
2022-11-29T07:35:01.876Z,0
2022-11-29T07:40:01.874Z,0
2022-11-29T07:45:01.921Z,0
2022-11-29T07:50:01.982Z,0
2022-11-29T07:55:02.058Z,0
2022-11-29T08:00:01.881Z,0.07
2022-11-29T08:05:01.879Z,0.155
2022-11-29T08:10:01.891Z,0.156
2022-11-29T08:15:01.941Z,20.88
2022-11-29T08:20:04.244Z,32.297000000000004
2022-11-29T08:25:01.877Z,19.637
2022-11-29T08:30:01.894Z,31.503
2022-11-29T08:35:02.043Z,28.786
2022-11-29T08:40:02.082Z,32.099000000000004
2022-11-29T08:45:01.920Z,27.713
2022-11-29T08:50:01.953Z,38.023
2022-11-29T08:55:03.379Z,33.78
2022-11-29T09:00:01.978Z,39.6
2022-11-29T09:05:01.969Z,32.969
2022-11-29T09:10:02.012Z,36.194
2022-11-29T09:15:01.940Z,31.626
2022-11-29T09:20:02.094Z,32.804
2022-11-29T09:25:02.152Z,33.95
2022-11-29T09:30:01.977Z,30.796
2022-11-29T09:35:02.050Z,32.954
2022-11-29T09:40:01.981Z,25.900000000000002
2022-11-29T09:45:01.955Z,29.027
2022-11-29T09:50:01.964Z,23.173000000000002
2022-11-29T09:55:01.979Z,25.188
2022-11-29T10:00:02.053Z,9.66
2022-11-29T10:05:02.114Z,30.593
2022-11-29T10:10:02.203Z,26.902
2022-11-29T10:15:02.012Z,30.957
2022-11-29T10:20:02.004Z,29.435000000000002
2022-11-29T10:25:02.124Z,32.239
2022-11-29T10:30:02.071Z,30.209
2022-11-29T10:35:02.035Z,26.045
2022-11-29T10:40:02.160Z,29.822
2022-11-29T10:45:02.002Z,25.232
2022-11-29T10:50:02.123Z,31.922
2022-11-29T10:55:02.268Z,29.107
2022-11-29T11:00:02.039Z,35.112
2022-11-29T11:05:02.071Z,29.114
2022-11-29T11:10:02.075Z,33.986000000000004
2022-11-29T11:15:02.074Z,30.579
2022-11-29T11:20:02.119Z,35.849000000000004
2022-11-29T11:25:02.059Z,30.284
2022-11-29T11:30:02.070Z,36.748
2022-11-29T11:35:02.322Z,35.238
2022-11-29T11:40:02.343Z,53.966
2022-11-29T11:45:02.430Z,91.69800000000001
2022-11-29T11:50:02.112Z,152.68200000000002
2022-11-29T11:55:02.076Z,210.394
2022-11-29T12:00:06.565Z,183.185
2022-11-29T12:05:02.085Z,229.275
2022-11-29T12:10:02.146Z,396.841
2022-11-29T12:15:02.164Z,559.206
2022-11-29T12:20:02.353Z,698.825
2022-11-29T12:25:02.348Z,689.642
2022-11-29T12:30:02.236Z,671.294
2022-11-29T12:35:02.196Z,680.547
2022-11-29T12:40:02.141Z,745.547
2022-11-29T12:45:02.167Z,778.29
2022-11-29T12:50:02.141Z,661.862
2022-11-29T12:55:02.152Z,561.967
2022-11-29T13:00:02.284Z,521.764
2022-11-29T13:05:02.333Z,514.95
2022-11-29T13:10:02.448Z,578.135
2022-11-29T13:15:02.264Z,738.111
2022-11-29T13:20:02.189Z,738.21
2022-11-29T13:25:02.225Z,668.964
2022-11-29T13:30:02.219Z,469.47700000000003
2022-11-29T13:35:02.142Z,358.93600000000004
2022-11-29T13:40:02.169Z,321.237
2022-11-29T13:45:02.203Z,285.084
2022-11-29T13:50:02.315Z,260.754
2022-11-29T13:55:02.423Z,224.592
2022-11-29T14:00:02.208Z,193.635
2022-11-29T14:05:02.190Z,163.311
2022-11-29T14:10:02.241Z,143.555
2022-11-29T14:15:02.225Z,115.37
2022-11-29T14:20:02.336Z,80.405
2022-11-29T14:25:11.730Z,46.072
2022-11-29T14:30:02.246Z,24.713
2022-11-29T14:35:02.370Z,31.189
2022-11-29T14:40:02.221Z,15.412
2022-11-29T14:45:02.248Z,0.029
2022-11-29T14:50:02.262Z,0
2022-11-29T14:55:02.335Z,0
2022-11-29T15:00:02.263Z,0
2022-11-29T15:05:02.221Z,0
2022-11-29T15:10:02.384Z,0
2022-11-29T15:15:02.341Z,0.065
2022-11-29T15:20:02.479Z,0.068
2022-11-29T15:25:02.249Z,0.07
2022-11-29T15:30:02.341Z,0.07
2022-11-29T15:35:02.281Z,0.051000000000000004
2022-11-29T15:40:02.334Z,0.052000000000000005
2022-11-29T15:45:02.362Z,0.019
2022-11-29T15:50:02.315Z,0.107
2022-11-29T15:55:02.292Z,0.018000000000000002
2022-11-29T16:00:02.348Z,0
2022-11-29T16:05:02.450Z,0.054
2022-11-29T16:10:02.325Z,0.067
2022-11-29T16:15:02.405Z,0.046
2022-11-29T16:20:02.306Z,0.083
2022-11-29T16:25:02.292Z,0.029
2022-11-29T16:30:02.325Z,0.127
2022-11-29T16:35:02.331Z,0.053
2022-11-29T16:40:02.352Z,0.047
2022-11-29T16:45:02.548Z,0.069
2022-11-29T16:50:02.479Z,0.188
2022-11-29T16:55:02.364Z,0.298
2022-11-29T17:00:02.363Z,0.091
2022-11-29T17:05:02.355Z,0
2022-11-29T17:10:02.413Z,0
2022-11-29T17:15:02.333Z,0
2022-11-29T17:20:02.362Z,0
2022-11-29T17:25:02.369Z,0.018000000000000002
2022-11-29T17:30:02.531Z,0.131
2022-11-29T17:35:02.549Z,0.108
2022-11-29T17:40:02.553Z,0.068
2022-11-29T17:45:02.426Z,0.06
2022-11-29T17:50:02.360Z,0.059000000000000004
2022-11-29T17:55:02.395Z,0.059000000000000004
2022-11-29T18:00:02.394Z,0.063
2022-11-29T18:05:02.386Z,0.07
2022-11-29T18:10:02.437Z,0.058
2022-11-29T18:15:02.398Z,0
2022-11-29T18:20:02.379Z,0
2022-11-29T18:25:30.409Z,0
2022-11-29T18:30:02.520Z,0
2022-11-29T18:35:02.649Z,0.004
2022-11-29T18:40:02.627Z,0.004
2022-11-29T18:45:02.431Z,0.054
2022-11-29T18:50:02.409Z,0.038
2022-11-29T18:55:02.508Z,0.01
2022-11-29T19:00:02.496Z,0.001
2022-11-29T19:05:02.509Z,0.009000000000000001
2022-11-29T19:10:02.499Z,1.651
2022-11-29T19:15:02.437Z,3.1790000000000003
2022-11-29T19:20:02.588Z,3.02
2022-11-29T19:25:02.557Z,2.836
2022-11-29T19:30:02.827Z,0.036000000000000004
2022-11-29T19:35:02.666Z,0.07100000000000001
2022-11-29T19:40:02.520Z,0.221
2022-11-29T19:45:16.774Z,0.077
2022-11-29T19:50:02.982Z,0.089
2022-11-29T19:55:02.486Z,0.078
2022-11-29T20:00:02.475Z,0.323
2022-11-29T20:05:02.477Z,0.135
2022-11-29T20:10:02.519Z,0.159
2022-11-29T20:15:02.532Z,0.094
2022-11-29T20:20:02.727Z,0.253
2022-11-29T20:25:02.744Z,0.3
2022-11-29T20:30:02.555Z,0.176
2022-11-29T20:35:02.596Z,0.177
2022-11-29T20:40:02.564Z,0.17300000000000001
2022-11-29T20:45:02.661Z,0.47600000000000003
2022-11-29T20:50:02.571Z,0.41400000000000003
2022-11-29T20:55:02.534Z,0.085
2022-11-29T21:00:02.634Z,0.09
2022-11-29T21:05:02.561Z,0.004
2022-11-29T21:10:02.678Z,0
2022-11-29T21:15:02.801Z,0.386
2022-11-29T21:20:02.733Z,0.438
2022-11-29T21:25:02.588Z,0.447
2022-11-29T21:30:02.606Z,0.099
2022-11-29T21:35:02.532Z,0.02
2022-11-29T21:40:02.676Z,0.08700000000000001
2022-11-29T21:45:02.693Z,0.101
2022-11-29T21:50:02.646Z,0.105
2022-11-29T21:55:02.622Z,0.113
2022-11-29T22:00:02.657Z,0.14
2022-11-29T22:05:02.733Z,0.139
2022-11-29T22:10:03.736Z,0.138
2022-11-29T22:15:02.583Z,0.093
2022-11-29T22:20:02.696Z,0.096
2022-11-29T22:25:02.629Z,0.075
2022-11-29T22:30:02.720Z,0
2022-11-29T22:35:02.643Z,0
2022-11-29T22:40:02.676Z,0
2022-11-29T22:45:02.655Z,0
2022-11-29T22:50:02.738Z,0
2022-11-29T22:55:04.956Z,0.099
2022-11-29T23:00:02.651Z,0.126
2022-11-29T23:05:02.782Z,0.094
2022-11-29T23:10:02.880Z,0.114
2022-11-29T23:15:02.854Z,0.47900000000000004
2022-11-29T23:20:02.670Z,0
2022-11-29T23:25:02.682Z,0
2022-11-29T23:30:02.671Z,0
2022-11-29T23:35:02.718Z,0.092
2022-11-29T23:40:02.807Z,0.41200000000000003
2022-11-29T23:45:02.732Z,0.525
2022-11-29T23:50:02.656Z,0.549
2022-11-29T23:55:02.696Z,0.5760000000000001
